sensor_id;sensor_type;location;lat;lon;timestamp;P1;durP1;ratioP1;P2;durP2;ratioP2
18520;SDS011;9390;51.244;6.982;2023-07-20T00:02:21;12.45;;;4.72;;
18520;SDS011;9390;51.244;6.982;2023-07-20T00:04:52;10.48;;;4.15;;
18520;SDS011;9390;51.244;6.982;2023-07-20T00:07:25;9.55;;;4.47;;
18520;SDS011;9390;51.244;6.982;2023-07-20T00:09:56;13.00;;;4.28;;
18520;SDS011;9390;51.244;6.982;2023-07-20T00:12:28;7.97;;;4.28;;
18520;SDS011;9390;51.244;6.982;2023-07-20T00:15:01;9.05;;;4.22;;
18520;SDS011;9390;51.244;6.982;2023-07-20T00:17:33;12.18;;;4.88;;
18520;SDS011;9390;51.244;6.982;2023-07-20T00:20:07;9.93;;;4.47;;
18520;SDS011;9390;51.244;6.982;2023-07-20T00:22:40;9.63;;;4.45;;
18520;SDS011;9390;51.244;6.982;2023-07-20T00:25:11;11.10;;;4.80;;
18520;SDS011;9390;51.244;6.982;2023-07-20T00:27:42;15.07;;;5.40;;
18520;SDS011;9390;51.244;6.982;2023-07-20T00:30:15;16.85;;;5.07;;
18520;SDS011;9390;51.244;6.982;2023-07-20T00:35:19;10.35;;;5.30;;
18520;SDS011;9390;51.244;6.982;2023-07-20T00:37:50;11.75;;;5.50;;
18520;SDS011;9390;51.244;6.982;2023-07-20T00:40:22;15.63;;;6.10;;
18520;SDS011;9390;51.244;6.982;2023-07-20T00:42:53;11.77;;;4.55;;
18520;SDS011;9390;51.244;6.982;2023-07-20T00:45:26;14.57;;;5.72;;
18520;SDS011;9390;51.244;6.982;2023-07-20T00:47:58;12.18;;;5.50;;
18520;SDS011;9390;51.244;6.982;2023-07-20T00:50:31;10.23;;;5.32;;
18520;SDS011;9390;51.244;6.982;2023-07-20T00:53:04;11.38;;;5.53;;
18520;SDS011;9390;51.244;6.982;2023-07-20T00:55:36;13.05;;;5.32;;
18520;SDS011;9390;51.244;6.982;2023-07-20T00:58:07;8.57;;;4.95;;
18520;SDS011;9390;51.244;6.982;2023-07-20T01:00:40;10.75;;;5.03;;
18520;SDS011;9390;51.244;6.982;2023-07-20T01:03:12;11.30;;;5.13;;
18520;SDS011;9390;51.244;6.982;2023-07-20T01:05:47;10.07;;;4.63;;
18520;SDS011;9390;51.244;6.982;2023-07-20T01:08:38;10.07;;;5.38;;
18520;SDS011;9390;51.244;6.982;2023-07-20T01:11:12;8.95;;;5.22;;
18520;SDS011;9390;51.244;6.982;2023-07-20T01:13:47;11.35;;;5.30;;
18520;SDS011;9390;51.244;6.982;2023-07-20T01:16:20;13.68;;;5.10;;
18520;SDS011;9390;51.244;6.982;2023-07-20T01:18:52;10.98;;;4.53;;
18520;SDS011;9390;51.244;6.982;2023-07-20T01:21:24;8.52;;;5.20;;
18520;SDS011;9390;51.244;6.982;2023-07-20T01:24:13;11.02;;;4.60;;
18520;SDS011;9390;51.244;6.982;2023-07-20T01:30:25;8.70;;;4.85;;
18520;SDS011;9390;51.244;6.982;2023-07-20T01:33:11;14.98;;;5.50;;
18520;SDS011;9390;51.244;6.982;2023-07-20T01:35:45;13.07;;;5.78;;
18520;SDS011;9390;51.244;6.982;2023-07-20T01:38:18;13.43;;;4.95;;
18520;SDS011;9390;51.244;6.982;2023-07-20T01:40:51;10.80;;;5.03;;
18520;SDS011;9390;51.244;6.982;2023-07-20T01:43:23;9.23;;;4.95;;
18520;SDS011;9390;51.244;6.982;2023-07-20T01:45:54;9.02;;;5.22;;
18520;SDS011;9390;51.244;6.982;2023-07-20T01:48:27;12.10;;;5.15;;
18520;SDS011;9390;51.244;6.982;2023-07-20T01:50:59;7.95;;;4.50;;
18520;SDS011;9390;51.244;6.982;2023-07-20T01:53:30;9.48;;;5.03;;
18520;SDS011;9390;51.244;6.982;2023-07-20T01:56:02;11.02;;;5.18;;
18520;SDS011;9390;51.244;6.982;2023-07-20T01:58:34;11.70;;;4.97;;
18520;SDS011;9390;51.244;6.982;2023-07-20T02:01:05;12.32;;;5.40;;
18520;SDS011;9390;51.244;6.982;2023-07-20T02:03:38;10.50;;;4.90;;
18520;SDS011;9390;51.244;6.982;2023-07-20T02:06:09;12.63;;;5.80;;
18520;SDS011;9390;51.244;6.982;2023-07-20T02:08:41;10.18;;;4.85;;
18520;SDS011;9390;51.244;6.982;2023-07-20T02:11:12;12.73;;;5.18;;
18520;SDS011;9390;51.244;6.982;2023-07-20T02:13:44;11.98;;;5.25;;
18520;SDS011;9390;51.244;6.982;2023-07-20T02:16:16;11.65;;;5.63;;
18520;SDS011;9390;51.244;6.982;2023-07-20T02:18:48;11.95;;;4.75;;
18520;SDS011;9390;51.244;6.982;2023-07-20T02:21:20;10.80;;;4.82;;
18520;SDS011;9390;51.244;6.982;2023-07-20T02:23:52;11.10;;;5.28;;
18520;SDS011;9390;51.244;6.982;2023-07-20T02:26:23;11.88;;;5.22;;
18520;SDS011;9390;51.244;6.982;2023-07-20T02:28:55;9.98;;;4.72;;
18520;SDS011;9390;51.244;6.982;2023-07-20T02:31:27;10.25;;;4.97;;
18520;SDS011;9390;51.244;6.982;2023-07-20T02:34:00;9.25;;;5.05;;
18520;SDS011;9390;51.244;6.982;2023-07-20T02:36:31;10.77;;;5.63;;
18520;SDS011;9390;51.244;6.982;2023-07-20T02:39:03;11.48;;;5.07;;
18520;SDS011;9390;51.244;6.982;2023-07-20T02:41:35;13.73;;;5.28;;
18520;SDS011;9390;51.244;6.982;2023-07-20T02:44:06;8.77;;;4.32;;
18520;SDS011;9390;51.244;6.982;2023-07-20T02:46:38;10.77;;;4.65;;
18520;SDS011;9390;51.244;6.982;2023-07-20T02:49:11;16.92;;;5.38;;
18520;SDS011;9390;51.244;6.982;2023-07-20T02:51:42;11.38;;;5.80;;
18520;SDS011;9390;51.244;6.982;2023-07-20T02:54:14;11.33;;;4.83;;
18520;SDS011;9390;51.244;6.982;2023-07-20T02:56:46;10.68;;;5.13;;
18520;SDS011;9390;51.244;6.982;2023-07-20T02:59:18;14.23;;;5.15;;
18520;SDS011;9390;51.244;6.982;2023-07-20T03:01:49;10.55;;;5.05;;
18520;SDS011;9390;51.244;6.982;2023-07-20T03:04:22;10.85;;;4.85;;
18520;SDS011;9390;51.244;6.982;2023-07-20T03:06:54;11.43;;;5.28;;
18520;SDS011;9390;51.244;6.982;2023-07-20T03:09:26;12.55;;;5.30;;
18520;SDS011;9390;51.244;6.982;2023-07-20T03:11:58;10.93;;;5.40;;
18520;SDS011;9390;51.244;6.982;2023-07-20T03:14:29;11.48;;;5.72;;
18520;SDS011;9390;51.244;6.982;2023-07-20T03:17:01;13.00;;;5.32;;
18520;SDS011;9390;51.244;6.982;2023-07-20T03:19:34;12.43;;;5.25;;
18520;SDS011;9390;51.244;6.982;2023-07-20T03:22:05;15.73;;;5.20;;
18520;SDS011;9390;51.244;6.982;2023-07-20T03:24:37;13.27;;;5.47;;
18520;SDS011;9390;51.244;6.982;2023-07-20T03:27:08;11.23;;;5.10;;
18520;SDS011;9390;51.244;6.982;2023-07-20T03:29:40;10.55;;;4.88;;
18520;SDS011;9390;51.244;6.982;2023-07-20T03:32:11;13.70;;;5.28;;
18520;SDS011;9390;51.244;6.982;2023-07-20T03:34:47;12.55;;;5.85;;
18520;SDS011;9390;51.244;6.982;2023-07-20T03:39:51;13.82;;;5.28;;
18520;SDS011;9390;51.244;6.982;2023-07-20T03:42:23;12.07;;;5.28;;
18520;SDS011;9390;51.244;6.982;2023-07-20T03:44:54;11.65;;;6.05;;
18520;SDS011;9390;51.244;6.982;2023-07-20T03:47:26;13.80;;;5.82;;
18520;SDS011;9390;51.244;6.982;2023-07-20T03:49:59;15.43;;;6.07;;
18520;SDS011;9390;51.244;6.982;2023-07-20T03:52:30;13.02;;;6.32;;
18520;SDS011;9390;51.244;6.982;2023-07-20T03:55:02;11.52;;;6.15;;
18520;SDS011;9390;51.244;6.982;2023-07-20T03:57:34;12.95;;;5.60;;
18520;SDS011;9390;51.244;6.982;2023-07-20T04:00:06;11.85;;;5.85;;
18520;SDS011;9390;51.244;6.982;2023-07-20T04:02:38;16.10;;;6.15;;
18520;SDS011;9390;51.244;6.982;2023-07-20T04:05:11;11.50;;;5.40;;
18520;SDS011;9390;51.244;6.982;2023-07-20T04:07:43;12.02;;;5.43;;
18520;SDS011;9390;51.244;6.982;2023-07-20T04:10:14;14.35;;;6.38;;
18520;SDS011;9390;51.244;6.982;2023-07-20T04:12:46;18.67;;;6.40;;
18520;SDS011;9390;51.244;6.982;2023-07-20T04:15:18;15.18;;;6.53;;
18520;SDS011;9390;51.244;6.982;2023-07-20T04:17:49;15.82;;;6.57;;
18520;SDS011;9390;51.244;6.982;2023-07-20T04:20:22;14.70;;;6.85;;
18520;SDS011;9390;51.244;6.982;2023-07-20T04:22:54;15.95;;;7.00;;
18520;SDS011;9390;51.244;6.982;2023-07-20T04:25:25;15.32;;;6.60;;
18520;SDS011;9390;51.244;6.982;2023-07-20T04:27:57;17.00;;;6.50;;
18520;SDS011;9390;51.244;6.982;2023-07-20T04:30:28;15.30;;;7.57;;
18520;SDS011;9390;51.244;6.982;2023-07-20T04:33:00;15.52;;;7.07;;
18520;SDS011;9390;51.244;6.982;2023-07-20T04:35:46;16.25;;;7.50;;
18520;SDS011;9390;51.244;6.982;2023-07-20T04:38:21;21.63;;;8.23;;
18520;SDS011;9390;51.244;6.982;2023-07-20T04:40:54;22.10;;;9.10;;
18520;SDS011;9390;51.244;6.982;2023-07-20T04:43:25;23.88;;;10.43;;
18520;SDS011;9390;51.244;6.982;2023-07-20T04:45:57;20.83;;;9.98;;
18520;SDS011;9390;51.244;6.982;2023-07-20T04:48:29;24.45;;;10.35;;
18520;SDS011;9390;51.244;6.982;2023-07-20T04:51:02;20.92;;;10.95;;
18520;SDS011;9390;51.244;6.982;2023-07-20T04:53:34;21.42;;;9.90;;
18520;SDS011;9390;51.244;6.982;2023-07-20T04:56:05;23.60;;;10.95;;
18520;SDS011;9390;51.244;6.982;2023-07-20T04:58:37;20.52;;;10.80;;
18520;SDS011;9390;51.244;6.982;2023-07-20T05:01:08;24.60;;;11.30;;
18520;SDS011;9390;51.244;6.982;2023-07-20T05:03:40;20.88;;;11.23;;
18520;SDS011;9390;51.244;6.982;2023-07-20T05:06:13;24.27;;;11.88;;
18520;SDS011;9390;51.244;6.982;2023-07-20T05:11:16;24.92;;;12.35;;
18520;SDS011;9390;51.244;6.982;2023-07-20T05:13:47;26.27;;;12.40;;
18520;SDS011;9390;51.244;6.982;2023-07-20T05:16:19;22.80;;;12.35;;
18520;SDS011;9390;51.244;6.982;2023-07-20T05:18:50;27.63;;;13.80;;
18520;SDS011;9390;51.244;6.982;2023-07-20T05:21:23;27.52;;;14.18;;
18520;SDS011;9390;51.244;6.982;2023-07-20T05:23:55;25.95;;;14.18;;
18520;SDS011;9390;51.244;6.982;2023-07-20T05:26:26;31.92;;;15.05;;
18520;SDS011;9390;51.244;6.982;2023-07-20T05:28:58;33.13;;;16.08;;
18520;SDS011;9390;51.244;6.982;2023-07-20T05:31:30;31.60;;;16.08;;
18520;SDS011;9390;51.244;6.982;2023-07-20T05:34:01;28.80;;;16.35;;
18520;SDS011;9390;51.244;6.982;2023-07-20T05:36:34;25.73;;;14.70;;
18520;SDS011;9390;51.244;6.982;2023-07-20T05:39:06;33.03;;;16.42;;
18520;SDS011;9390;51.244;6.982;2023-07-20T05:41:38;31.98;;;19.35;;
18520;SDS011;9390;51.244;6.982;2023-07-20T05:44:09;32.63;;;18.27;;
18520;SDS011;9390;51.244;6.982;2023-07-20T05:46:41;31.85;;;18.08;;
18520;SDS011;9390;51.244;6.982;2023-07-20T05:49:13;31.65;;;16.60;;
18520;SDS011;9390;51.244;6.982;2023-07-20T05:51:46;28.08;;;16.05;;
18520;SDS011;9390;51.244;6.982;2023-07-20T05:54:17;28.55;;;16.77;;
18520;SDS011;9390;51.244;6.982;2023-07-20T05:56:49;34.15;;;17.23;;
18520;SDS011;9390;51.244;6.982;2023-07-20T05:59:21;30.23;;;16.77;;
18520;SDS011;9390;51.244;6.982;2023-07-20T06:01:53;34.95;;;18.48;;
18520;SDS011;9390;51.244;6.982;2023-07-20T06:04:25;34.47;;;18.85;;
18520;SDS011;9390;51.244;6.982;2023-07-20T06:06:58;34.60;;;18.50;;
18520;SDS011;9390;51.244;6.982;2023-07-20T06:09:30;36.13;;;18.58;;
18520;SDS011;9390;51.244;6.982;2023-07-20T06:12:01;33.85;;;19.67;;
18520;SDS011;9390;51.244;6.982;2023-07-20T06:14:33;32.45;;;19.05;;
18520;SDS011;9390;51.244;6.982;2023-07-20T06:17:05;31.52;;;18.98;;
18520;SDS011;9390;51.244;6.982;2023-07-20T06:19:36;31.88;;;19.65;;
18520;SDS011;9390;51.244;6.982;2023-07-20T06:22:09;30.80;;;18.90;;
18520;SDS011;9390;51.244;6.982;2023-07-20T06:24:41;33.90;;;19.98;;
18520;SDS011;9390;51.244;6.982;2023-07-20T06:27:12;38.20;;;21.17;;
18520;SDS011;9390;51.244;6.982;2023-07-20T06:29:44;35.33;;;20.25;;
18520;SDS011;9390;51.244;6.982;2023-07-20T06:32:15;34.67;;;19.85;;
18520;SDS011;9390;51.244;6.982;2023-07-20T06:34:47;37.08;;;21.48;;
18520;SDS011;9390;51.244;6.982;2023-07-20T06:37:20;36.63;;;21.55;;
18520;SDS011;9390;51.244;6.982;2023-07-20T06:39:51;37.83;;;22.17;;
18520;SDS011;9390;51.244;6.982;2023-07-20T06:42:23;32.50;;;20.25;;
18520;SDS011;9390;51.244;6.982;2023-07-20T06:44:54;30.77;;;19.15;;
18520;SDS011;9390;51.244;6.982;2023-07-20T06:47:26;32.58;;;19.23;;
18520;SDS011;9390;51.244;6.982;2023-07-20T06:49:57;29.02;;;18.20;;
18520;SDS011;9390;51.244;6.982;2023-07-20T06:52:30;30.15;;;18.92;;
18520;SDS011;9390;51.244;6.982;2023-07-20T06:55:02;30.75;;;19.42;;
18520;SDS011;9390;51.244;6.982;2023-07-20T06:57:34;31.25;;;19.90;;
18520;SDS011;9390;51.244;6.982;2023-07-20T07:00:06;36.55;;;23.80;;
18520;SDS011;9390;51.244;6.982;2023-07-20T07:02:38;38.15;;;24.35;;
18520;SDS011;9390;51.244;6.982;2023-07-20T07:05:10;37.58;;;24.15;;
18520;SDS011;9390;51.244;6.982;2023-07-20T07:07:44;37.08;;;24.02;;
18520;SDS011;9390;51.244;6.982;2023-07-20T07:12:48;41.58;;;25.80;;
18520;SDS011;9390;51.244;6.982;2023-07-20T07:15:19;38.38;;;23.33;;
18520;SDS011;9390;51.244;6.982;2023-07-20T07:17:51;32.70;;;21.33;;
18520;SDS011;9390;51.244;6.982;2023-07-20T07:20:22;30.95;;;20.48;;
18520;SDS011;9390;51.244;6.982;2023-07-20T07:22:56;31.48;;;19.13;;
18520;SDS011;9390;51.244;6.982;2023-07-20T07:25:27;29.13;;;17.83;;
18520;SDS011;9390;51.244;6.982;2023-07-20T07:27:58;26.55;;;16.80;;
18520;SDS011;9390;51.244;6.982;2023-07-20T07:30:30;23.95;;;16.52;;
18520;SDS011;9390;51.244;6.982;2023-07-20T07:33:01;18.60;;;12.27;;
18520;SDS011;9390;51.244;6.982;2023-07-20T07:35:33;21.77;;;13.52;;
18520;SDS011;9390;51.244;6.982;2023-07-20T07:38:05;20.67;;;12.20;;
18520;SDS011;9390;51.244;6.982;2023-07-20T07:43:08;16.38;;;10.73;;
18520;SDS011;9390;51.244;6.982;2023-07-20T07:45:40;17.48;;;10.63;;
18520;SDS011;9390;51.244;6.982;2023-07-20T07:48:12;17.95;;;11.18;;
18520;SDS011;9390;51.244;6.982;2023-07-20T07:50:44;17.45;;;10.20;;
18520;SDS011;9390;51.244;6.982;2023-07-20T07:53:16;18.45;;;11.15;;
18520;SDS011;9390;51.244;6.982;2023-07-20T07:55:48;14.05;;;9.50;;
18520;SDS011;9390;51.244;6.982;2023-07-20T07:58:19;10.82;;;7.03;;
18520;SDS011;9390;51.244;6.982;2023-07-20T08:00:51;10.70;;;6.72;;
18520;SDS011;9390;51.244;6.982;2023-07-20T08:03:22;12.63;;;8.38;;
18520;SDS011;9390;51.244;6.982;2023-07-20T08:05:54;12.30;;;7.95;;
18520;SDS011;9390;51.244;6.982;2023-07-20T08:08:27;15.52;;;7.82;;
18520;SDS011;9390;51.244;6.982;2023-07-20T08:10:59;13.63;;;8.43;;
18520;SDS011;9390;51.244;6.982;2023-07-20T08:13:30;12.52;;;8.10;;
18520;SDS011;9390;51.244;6.982;2023-07-20T08:16:02;13.15;;;8.10;;
18520;SDS011;9390;51.244;6.982;2023-07-20T08:18:33;10.98;;;7.75;;
18520;SDS011;9390;51.244;6.982;2023-07-20T08:21:04;11.75;;;7.75;;
18520;SDS011;9390;51.244;6.982;2023-07-20T08:23:37;11.68;;;7.25;;
18520;SDS011;9390;51.244;6.982;2023-07-20T08:26:09;11.45;;;7.78;;
18520;SDS011;9390;51.244;6.982;2023-07-20T08:28:40;13.23;;;7.97;;
18520;SDS011;9390;51.244;6.982;2023-07-20T08:31:11;11.38;;;7.75;;
18520;SDS011;9390;51.244;6.982;2023-07-20T08:33:43;13.45;;;8.93;;
18520;SDS011;9390;51.244;6.982;2023-07-20T08:36:14;13.15;;;8.45;;
18520;SDS011;9390;51.244;6.982;2023-07-20T08:38:47;12.82;;;8.40;;
18520;SDS011;9390;51.244;6.982;2023-07-20T08:43:50;14.30;;;8.35;;
18520;SDS011;9390;51.244;6.982;2023-07-20T08:46:25;14.73;;;8.48;;
18520;SDS011;9390;51.244;6.982;2023-07-20T08:48:57;13.95;;;8.45;;
18520;SDS011;9390;51.244;6.982;2023-07-20T08:51:29;12.70;;;8.10;;
18520;SDS011;9390;51.244;6.982;2023-07-20T08:54:02;12.80;;;6.70;;
18520;SDS011;9390;51.244;6.982;2023-07-20T08:56:34;10.63;;;6.75;;
18520;SDS011;9390;51.244;6.982;2023-07-20T08:59:06;9.85;;;5.95;;
18520;SDS011;9390;51.244;6.982;2023-07-20T09:01:39;10.13;;;6.05;;
18520;SDS011;9390;51.244;6.982;2023-07-20T09:04:10;12.10;;;6.85;;
18520;SDS011;9390;51.244;6.982;2023-07-20T09:06:42;13.43;;;8.20;;
18520;SDS011;9390;51.244;6.982;2023-07-20T09:09:15;12.98;;;7.55;;
18520;SDS011;9390;51.244;6.982;2023-07-20T09:11:47;11.38;;;7.93;;
18520;SDS011;9390;51.244;6.982;2023-07-20T09:14:18;14.43;;;8.25;;
18520;SDS011;9390;51.244;6.982;2023-07-20T09:16:52;10.60;;;7.00;;
18520;SDS011;9390;51.244;6.982;2023-07-20T09:19:24;13.00;;;6.82;;
18520;SDS011;9390;51.244;6.982;2023-07-20T09:21:56;11.93;;;7.43;;
18520;SDS011;9390;51.244;6.982;2023-07-20T09:24:28;11.88;;;7.03;;
18520;SDS011;9390;51.244;6.982;2023-07-20T09:29:31;10.20;;;7.13;;
18520;SDS011;9390;51.244;6.982;2023-07-20T09:32:03;12.98;;;7.05;;
18520;SDS011;9390;51.244;6.982;2023-07-20T09:34:35;14.35;;;9.80;;
18520;SDS011;9390;51.244;6.982;2023-07-20T09:37:06;15.32;;;8.65;;
18520;SDS011;9390;51.244;6.982;2023-07-20T09:39:43;12.00;;;7.55;;
18520;SDS011;9390;51.244;6.982;2023-07-20T09:42:14;12.73;;;8.43;;
18520;SDS011;9390;51.244;6.982;2023-07-20T09:44:46;11.95;;;7.43;;
18520;SDS011;9390;51.244;6.982;2023-07-20T09:47:21;7.18;;;3.88;;
18520;SDS011;9390;51.244;6.982;2023-07-20T09:49:57;8.50;;;5.20;;
18520;SDS011;9390;51.244;6.982;2023-07-20T09:52:29;9.43;;;5.07;;
18520;SDS011;9390;51.244;6.982;2023-07-20T09:55:02;11.13;;;6.13;;
18520;SDS011;9390;51.244;6.982;2023-07-20T09:57:35;11.48;;;6.82;;
18520;SDS011;9390;51.244;6.982;2023-07-20T10:00:07;9.55;;;6.63;;
18520;SDS011;9390;51.244;6.982;2023-07-20T10:02:43;10.77;;;6.50;;
18520;SDS011;9390;51.244;6.982;2023-07-20T10:07:47;9.32;;;5.75;;
18520;SDS011;9390;51.244;6.982;2023-07-20T10:10:21;10.20;;;6.07;;
18520;SDS011;9390;51.244;6.982;2023-07-20T10:12:52;6.28;;;3.80;;
18520;SDS011;9390;51.244;6.982;2023-07-20T10:15:25;7.30;;;4.15;;
18520;SDS011;9390;51.244;6.982;2023-07-20T10:18:01;7.40;;;4.10;;
18520;SDS011;9390;51.244;6.982;2023-07-20T10:20:35;7.05;;;3.80;;
18520;SDS011;9390;51.244;6.982;2023-07-20T10:23:07;7.22;;;3.58;;
18520;SDS011;9390;51.244;6.982;2023-07-20T10:25:40;5.35;;;3.05;;
18520;SDS011;9390;51.244;6.982;2023-07-20T10:28:13;6.72;;;3.60;;
18520;SDS011;9390;51.244;6.982;2023-07-20T10:30:44;6.90;;;3.42;;
18520;SDS011;9390;51.244;6.982;2023-07-20T10:33:16;7.17;;;2.80;;
18520;SDS011;9390;51.244;6.982;2023-07-20T10:38:39;6.00;;;3.03;;
18520;SDS011;9390;51.244;6.982;2023-07-20T10:41:19;4.43;;;2.30;;
18520;SDS011;9390;51.244;6.982;2023-07-20T10:43:54;5.95;;;2.60;;
18520;SDS011;9390;51.244;6.982;2023-07-20T10:46:41;4.07;;;2.00;;
18520;SDS011;9390;51.244;6.982;2023-07-20T10:49:16;3.00;;;1.60;;
18520;SDS011;9390;51.244;6.982;2023-07-20T10:51:55;3.85;;;1.83;;
18520;SDS011;9390;51.244;6.982;2023-07-20T10:54:34;3.85;;;1.70;;
18520;SDS011;9390;51.244;6.982;2023-07-20T10:57:23;4.47;;;1.80;;
18520;SDS011;9390;51.244;6.982;2023-07-20T11:00:11;7.10;;;3.35;;
18520;SDS011;9390;51.244;6.982;2023-07-20T11:02:44;5.95;;;2.88;;
18520;SDS011;9390;51.244;6.982;2023-07-20T11:05:32;4.70;;;2.35;;
18520;SDS011;9390;51.244;6.982;2023-07-20T11:08:06;5.93;;;2.40;;
18520;SDS011;9390;51.244;6.982;2023-07-20T11:10:40;4.32;;;2.33;;
18520;SDS011;9390;51.244;6.982;2023-07-20T11:13:20;4.90;;;2.22;;
18520;SDS011;9390;51.244;6.982;2023-07-20T11:16:02;4.32;;;1.85;;
18520;SDS011;9390;51.244;6.982;2023-07-20T11:18:35;3.75;;;1.90;;
18520;SDS011;9390;51.244;6.982;2023-07-20T11:21:09;4.28;;;1.80;;
18520;SDS011;9390;51.244;6.982;2023-07-20T11:23:42;4.15;;;1.33;;
18520;SDS011;9390;51.244;6.982;2023-07-20T11:26:15;4.10;;;1.70;;
18520;SDS011;9390;51.244;6.982;2023-07-20T11:28:49;4.05;;;1.30;;
18520;SDS011;9390;51.244;6.982;2023-07-20T11:31:21;2.42;;;1.20;;
18520;SDS011;9390;51.244;6.982;2023-07-20T11:33:53;2.50;;;1.10;;
18520;SDS011;9390;51.244;6.982;2023-07-20T11:36:24;3.05;;;1.25;;
18520;SDS011;9390;51.244;6.982;2023-07-20T11:38:56;2.53;;;1.20;;
18520;SDS011;9390;51.244;6.982;2023-07-20T11:41:28;3.55;;;1.70;;
18520;SDS011;9390;51.244;6.982;2023-07-20T11:44:00;5.13;;;1.30;;
18520;SDS011;9390;51.244;6.982;2023-07-20T11:46:33;2.38;;;1.13;;
18520;SDS011;9390;51.244;6.982;2023-07-20T11:49:05;2.95;;;1.30;;
18520;SDS011;9390;51.244;6.982;2023-07-20T11:51:36;2.55;;;1.00;;
18520;SDS011;9390;51.244;6.982;2023-07-20T11:54:09;2.17;;;0.82;;
18520;SDS011;9390;51.244;6.982;2023-07-20T11:56:41;2.33;;;1.10;;
18520;SDS011;9390;51.244;6.982;2023-07-20T11:59:14;2.70;;;0.88;;
18520;SDS011;9390;51.244;6.982;2023-07-20T12:01:47;4.13;;;1.10;;
18520;SDS011;9390;51.244;6.982;2023-07-20T12:04:18;1.40;;;0.70;;
18520;SDS011;9390;51.244;6.982;2023-07-20T12:06:50;2.40;;;0.98;;
18520;SDS011;9390;51.244;6.982;2023-07-20T12:09:25;3.28;;;1.27;;
18520;SDS011;9390;51.244;6.982;2023-07-20T12:11:56;3.33;;;1.40;;
18520;SDS011;9390;51.244;6.982;2023-07-20T12:14:29;2.42;;;1.20;;
18520;SDS011;9390;51.244;6.982;2023-07-20T12:17:00;2.20;;;1.17;;
18520;SDS011;9390;51.244;6.982;2023-07-20T12:19:32;2.58;;;1.20;;
18520;SDS011;9390;51.244;6.982;2023-07-20T12:22:03;2.28;;;1.20;;
18520;SDS011;9390;51.244;6.982;2023-07-20T12:24:35;5.13;;;1.07;;
18520;SDS011;9390;51.244;6.982;2023-07-20T12:27:06;2.38;;;1.17;;
18520;SDS011;9390;51.244;6.982;2023-07-20T12:29:39;2.22;;;1.15;;
18520;SDS011;9390;51.244;6.982;2023-07-20T12:32:10;2.72;;;0.90;;
18520;SDS011;9390;51.244;6.982;2023-07-20T12:34:42;2.78;;;1.10;;
18520;SDS011;9390;51.244;6.982;2023-07-20T12:37:13;2.15;;;0.88;;
18520;SDS011;9390;51.244;6.982;2023-07-20T12:39:45;1.75;;;0.80;;
18520;SDS011;9390;51.244;6.982;2023-07-20T12:42:17;3.22;;;0.95;;
18520;SDS011;9390;51.244;6.982;2023-07-20T12:44:50;1.90;;;0.85;;
18520;SDS011;9390;51.244;6.982;2023-07-20T12:47:21;1.05;;;0.80;;
18520;SDS011;9390;51.244;6.982;2023-07-20T12:49:52;2.33;;;0.73;;
18520;SDS011;9390;51.244;6.982;2023-07-20T12:52:24;2.30;;;0.88;;
18520;SDS011;9390;51.244;6.982;2023-07-20T12:54:55;1.48;;;0.80;;
18520;SDS011;9390;51.244;6.982;2023-07-20T12:57:26;1.88;;;0.90;;
18520;SDS011;9390;51.244;6.982;2023-07-20T12:59:59;3.55;;;1.40;;
18520;SDS011;9390;51.244;6.982;2023-07-20T13:02:31;3.60;;;0.88;;
18520;SDS011;9390;51.244;6.982;2023-07-20T13:05:03;2.47;;;0.90;;
18520;SDS011;9390;51.244;6.982;2023-07-20T13:07:35;2.88;;;0.82;;
18520;SDS011;9390;51.244;6.982;2023-07-20T13:10:08;2.47;;;0.85;;
18520;SDS011;9390;51.244;6.982;2023-07-20T13:15:13;2.13;;;0.82;;
18520;SDS011;9390;51.244;6.982;2023-07-20T13:20:15;1.63;;;0.80;;
18520;SDS011;9390;51.244;6.982;2023-07-20T13:22:48;1.90;;;0.80;;
18520;SDS011;9390;51.244;6.982;2023-07-20T13:25:19;2.55;;;0.77;;
18520;SDS011;9390;51.244;6.982;2023-07-20T13:27:51;2.40;;;0.98;;
18520;SDS011;9390;51.244;6.982;2023-07-20T13:30:23;2.25;;;0.90;;
18520;SDS011;9390;51.244;6.982;2023-07-20T13:32:55;2.47;;;0.93;;
18520;SDS011;9390;51.244;6.982;2023-07-20T13:35:27;1.40;;;0.80;;
18520;SDS011;9390;51.244;6.982;2023-07-20T13:37:59;1.90;;;1.00;;
18520;SDS011;9390;51.244;6.982;2023-07-20T13:40:30;2.55;;;0.93;;
18520;SDS011;9390;51.244;6.982;2023-07-20T13:43:02;2.95;;;0.90;;
18520;SDS011;9390;51.244;6.982;2023-07-20T13:45:35;3.45;;;1.10;;
18520;SDS011;9390;51.244;6.982;2023-07-20T13:48:07;1.27;;;0.95;;
18520;SDS011;9390;51.244;6.982;2023-07-20T13:50:39;3.73;;;1.00;;
18520;SDS011;9390;51.244;6.982;2023-07-20T13:53:10;2.53;;;1.15;;
18520;SDS011;9390;51.244;6.982;2023-07-20T13:55:43;2.92;;;1.25;;
18520;SDS011;9390;51.244;6.982;2023-07-20T13:58:14;3.15;;;1.35;;
18520;SDS011;9390;51.244;6.982;2023-07-20T14:00:47;2.28;;;1.13;;
18520;SDS011;9390;51.244;6.982;2023-07-20T14:05:50;3.90;;;1.20;;
18520;SDS011;9390;51.244;6.982;2023-07-20T14:08:22;2.03;;;1.10;;
18520;SDS011;9390;51.244;6.982;2023-07-20T14:10:53;2.50;;;1.10;;
18520;SDS011;9390;51.244;6.982;2023-07-20T14:13:25;3.42;;;1.23;;
18520;SDS011;9390;51.244;6.982;2023-07-20T14:15:58;2.42;;;1.02;;
18520;SDS011;9390;51.244;6.982;2023-07-20T14:18:29;2.65;;;1.08;;
18520;SDS011;9390;51.244;6.982;2023-07-20T14:21:00;3.00;;;1.00;;
18520;SDS011;9390;51.244;6.982;2023-07-20T14:23:33;2.42;;;1.00;;
18520;SDS011;9390;51.244;6.982;2023-07-20T14:26:06;2.03;;;1.00;;
18520;SDS011;9390;51.244;6.982;2023-07-20T14:28:39;2.72;;;1.00;;
18520;SDS011;9390;51.244;6.982;2023-07-20T14:31:11;3.10;;;0.77;;
18520;SDS011;9390;51.244;6.982;2023-07-20T14:33:43;3.05;;;0.90;;
18520;SDS011;9390;51.244;6.982;2023-07-20T14:36:15;2.63;;;0.93;;
18520;SDS011;9390;51.244;6.982;2023-07-20T14:38:47;3.27;;;1.20;;
18520;SDS011;9390;51.244;6.982;2023-07-20T14:41:18;2.63;;;1.00;;
18520;SDS011;9390;51.244;6.982;2023-07-20T14:43:50;5.60;;;0.95;;
18520;SDS011;9390;51.244;6.982;2023-07-20T14:46:23;2.22;;;0.90;;
18520;SDS011;9390;51.244;6.982;2023-07-20T14:51:26;3.25;;;1.10;;
18520;SDS011;9390;51.244;6.982;2023-07-20T14:54:01;3.42;;;1.10;;
18520;SDS011;9390;51.244;6.982;2023-07-20T14:56:33;3.00;;;1.10;;
18520;SDS011;9390;51.244;6.982;2023-07-20T14:59:04;3.13;;;1.08;;
18520;SDS011;9390;51.244;6.982;2023-07-20T15:01:37;3.08;;;1.00;;
18520;SDS011;9390;51.244;6.982;2023-07-20T15:04:08;1.40;;;0.88;;
18520;SDS011;9390;51.244;6.982;2023-07-20T15:06:40;1.55;;;0.80;;
18520;SDS011;9390;51.244;6.982;2023-07-20T15:09:11;2.25;;;0.90;;
18520;SDS011;9390;51.244;6.982;2023-07-20T15:11:43;5.40;;;0.90;;
18520;SDS011;9390;51.244;6.982;2023-07-20T15:14:14;4.78;;;0.85;;
18520;SDS011;9390;51.244;6.982;2023-07-20T15:16:47;2.15;;;0.90;;
18520;SDS011;9390;51.244;6.982;2023-07-20T15:24:23;1.67;;;0.80;;
18520;SDS011;9390;51.244;6.982;2023-07-20T15:26:54;3.33;;;1.13;;
18520;SDS011;9390;51.244;6.982;2023-07-20T15:32:00;2.78;;;0.75;;
18520;SDS011;9390;51.244;6.982;2023-07-20T15:37:02;1.38;;;0.80;;
18520;SDS011;9390;51.244;6.982;2023-07-20T15:39:35;3.45;;;1.00;;
18520;SDS011;9390;51.244;6.982;2023-07-20T15:42:07;2.08;;;0.90;;
18520;SDS011;9390;51.244;6.982;2023-07-20T15:44:38;4.60;;;0.90;;
18520;SDS011;9390;51.244;6.982;2023-07-20T15:47:11;1.55;;;0.95;;
18520;SDS011;9390;51.244;6.982;2023-07-20T15:49:43;1.60;;;0.70;;
18520;SDS011;9390;51.244;6.982;2023-07-20T15:52:14;2.85;;;1.00;;
18520;SDS011;9390;51.244;6.982;2023-07-20T15:57:18;1.52;;;0.85;;
18520;SDS011;9390;51.244;6.982;2023-07-20T15:59:50;3.37;;;0.90;;
18520;SDS011;9390;51.244;6.982;2023-07-20T16:02:23;1.60;;;0.77;;
18520;SDS011;9390;51.244;6.982;2023-07-20T16:04:54;2.45;;;0.90;;
18520;SDS011;9390;51.244;6.982;2023-07-20T16:07:26;3.47;;;1.15;;
18520;SDS011;9390;51.244;6.982;2023-07-20T16:09:57;4.25;;;0.80;;
18520;SDS011;9390;51.244;6.982;2023-07-20T16:12:31;3.35;;;1.00;;